Time;durP1;ratioP1;P1;durP2;ratioP2;P2;SDS_P1;SDS_P2;PMS_P1;PMS_P2;Temp;Humidity;BMP_temperature;BMP_pressure;BME280_temperature;BME280_humidity;BME280_pressure;Samples;Min_cycle;Max_cycle;Signal;HPM_P1;HPM_P2
2021/01/27 00:00:36;;;;;;;3.87;2.83;;;-1.20;98.50;;;;;;4948747;28;20273;-73
2021/01/27 00:03:03;;;;;;;3.27;2.53;;;-1.20;98.50;;;;;;4966559;28;20197;-73
2021/01/27 00:05:30;;;;;;;2.80;2.33;;;-1.20;98.50;;;;;;4966341;28;20239;-73
2021/01/27 00:07:56;;;;;;;4.93;2.80;;;-1.20;98.50;;;;;;4965928;28;20256;-73
2021/01/27 00:10:23;;;;;;;2.77;2.57;;;-1.20;98.50;;;;;;4948576;28;20211;-73
2021/01/27 00:12:49;;;;;;;4.33;2.47;;;-1.20;98.50;;;;;;4946862;29;20171;-73
2021/01/27 00:15:24;;;;;;;6.80;2.83;;;-1.20;98.50;;;;;;4947039;29;20652;-73
2021/01/27 00:17:50;;;;;;;17.87;3.23;;;-1.20;98.50;;;;;;4956017;28;20902;-73
2021/01/27 00:20:18;;;;;;;4.23;2.80;;;-1.20;98.50;;;;;;4948684;28;20178;-73
2021/01/27 00:22:44;;;;;;;3.40;1.90;;;-1.10;98.50;;;;;;4965953;28;20655;-73
2021/01/27 00:25:11;;;;;;;2.80;2.57;;;-1.10;98.50;;;;;;4964364;28;20892;-73
2021/01/27 00:27:37;;;;;;;4.50;2.70;;;-1.10;98.50;;;;;;4965747;28;20191;-73
2021/01/27 00:30:12;;;;;;;6.00;2.90;;;-1.10;98.50;;;;;;4965988;28;20678;-72
2021/01/27 00:32:37;;;;;;;4.37;1.90;;;-1.00;98.50;;;;;;4948008;28;20209;-73
2021/01/27 00:35:05;;;;;;;3.10;2.77;;;-1.00;98.50;;;;;;4965430;28;20190;-73
2021/01/27 00:37:31;;;;;;;4.03;2.53;;;-1.10;98.50;;;;;;4966270;28;20214;-73
2021/01/27 00:39:56;;;;;;;2.33;2.10;;;-1.10;98.50;;;;;;4967233;28;20684;-73
2021/01/27 00:42:22;;;;;;;3.10;2.43;;;-1.00;98.50;;;;;;4967775;28;20970;-73
2021/01/27 00:44:48;;;;;;;4.07;3.03;;;-1.00;98.50;;;;;;4966257;28;20190;-73
2021/01/27 00:47:13;;;;;;;3.43;2.33;;;-1.00;98.50;;;;;;4963981;28;20201;-73
2021/01/27 00:49:39;;;;;;;4.00;2.70;;;-1.00;98.50;;;;;;4946968;28;20198;-73
2021/01/27 00:52:05;;;;;;;3.50;3.27;;;-1.00;98.50;;;;;;4954381;28;20198;-73
2021/01/27 00:54:31;;;;;;;3.60;2.70;;;-1.10;98.50;;;;;;4967764;28;20662;-73
2021/01/27 00:56:57;;;;;;;3.70;2.77;;;-1.10;98.50;;;;;;4967400;28;20182;-73
2021/01/27 00:59:22;;;;;;;3.33;2.60;;;-1.10;98.50;;;;;;4966977;28;20181;-73
2021/01/27 01:01:48;;;;;;;4.20;3.43;;;-1.10;98.50;;;;;;4966049;28;20214;-73
2021/01/27 01:04:14;;;;;;;6.10;2.83;;;-1.10;98.50;;;;;;4966529;28;20268;-73
2021/01/27 01:06:39;;;;;;;5.23;3.73;;;-1.10;98.50;;;;;;4966601;28;20585;-73
2021/01/27 01:09:05;;;;;;;2.40;2.23;;;-1.10;98.50;;;;;;4966282;28;20220;-73
2021/01/27 01:11:31;;;;;;;3.00;2.10;;;-1.20;98.50;;;;;;4966873;28;20201;-73
2021/01/27 01:13:57;;;;;;;3.73;3.20;;;-1.20;98.50;;;;;;4966629;28;20579;-73
2021/01/27 01:16:23;;;;;;;3.23;2.90;;;-1.10;98.50;;;;;;4965878;28;20190;-72
2021/01/27 01:18:48;;;;;;;2.97;2.47;;;-1.10;98.50;;;;;;4966724;28;20186;-73
2021/01/27 01:21:14;;;;;;;2.70;2.53;;;-1.00;98.50;;;;;;4966958;28;20178;-73
2021/01/27 01:23:42;;;;;;;2.23;2.13;;;-1.00;98.50;;;;;;4967570;28;20193;-73
2021/01/27 01:26:08;;;;;;;2.83;2.37;;;-1.00;98.50;;;;;;4967094;28;20193;-73
2021/01/27 01:28:34;;;;;;;2.80;2.60;;;-1.00;98.50;;;;;;4949051;28;21002;-73
2021/01/27 01:31:00;;;;;;;2.53;2.37;;;-1.00;98.50;;;;;;4966989;28;20237;-73
2021/01/27 01:33:29;;;;;;;3.60;2.30;;;-1.00;98.50;;;;;;4967083;28;20178;-73
2021/01/27 01:35:55;;;;;;;3.40;2.67;;;-1.00;98.50;;;;;;4967256;28;20285;-72
2021/01/27 01:38:22;;;;;;;2.87;2.30;;;-1.00;98.50;;;;;;4966322;28;20690;-73
2021/01/27 01:40:54;;;;;;;5.07;3.37;;;-1.10;98.50;;;;;;4949248;28;20273;-73
2021/01/27 01:43:26;;;;;;;2.40;2.30;;;-1.10;98.50;;;;;;4966170;28;20209;-73
2021/01/27 01:46:05;;;;;;;3.07;2.77;;;-1.10;98.50;;;;;;4949243;28;20190;-73
2021/01/27 01:48:55;;;;;;;2.63;2.13;;;-1.10;98.50;;;;;;4954505;28;20363;-73
2021/01/27 01:51:37;;;;;;;5.17;2.83;;;-1.20;98.50;;;;;;4945500;29;20205;-73
2021/01/27 01:54:13;;;;;;;3.53;2.20;;;-1.10;98.50;;;;;;4947657;29;20269;-73
2021/01/27 01:56:43;;;;;;;2.10;2.00;;;-1.10;98.50;;;;;;4947587;28;20313;-73
2021/01/27 01:59:11;;;;;;;3.23;2.50;;;-1.10;98.50;;;;;;4948894;28;20178;-73
2021/01/27 02:01:40;;;;;;;2.23;2.00;;;-1.10;98.50;;;;;;4967998;28;20648;-73
2021/01/27 02:04:05;;;;;;;2.97;1.60;;;-1.00;98.50;;;;;;4970080;28;20578;-73
2021/01/27 02:06:31;;;;;;;3.83;2.77;;;-1.10;98.50;;;;;;4969883;28;20198;-72
2021/01/27 02:08:59;;;;;;;3.33;1.60;;;-1.00;98.50;;;;;;4968740;28;20194;-73
2021/01/27 02:11:42;;;;;;;2.53;2.13;;;-1.00;98.50;;;;;;4969542;28;20202;-73
2021/01/27 02:14:43;;;;;;;2.67;2.47;;;-1.00;98.50;;;;;;4970238;28;20167;-73
2021/01/27 02:17:39;;;;;;;2.77;2.37;;;-1.00;98.50;;;;;;4967096;28;20576;-73
2021/01/27 02:20:28;;;;;;;2.70;1.73;;;-1.00;98.50;;;;;;4968918;28;20171;-72
2021/01/27 02:23:20;;;;;;;2.77;2.23;;;-1.00;98.50;;;;;;4968320;28;20241;-73
2021/01/27 02:26:18;;;;;;;4.87;2.33;;;-1.00;98.50;;;;;;4908845;29;20199;-73
2021/01/27 02:29:13;;;;;;;1.80;1.70;;;-1.00;98.50;;;;;;4853558;29;20296;-73
2021/01/27 02:32:00;;;;;;;2.80;2.60;;;-1.10;98.50;;;;;;4854080;29;20214;-73
2021/01/27 02:35:07;;;;;;;5.37;3.43;;;-1.00;98.50;;;;;;4853896;29;20194;-73
2021/01/27 02:37:44;;;;;;;1.90;1.80;;;-1.00;98.50;;;;;;4780992;30;20239;-73
2021/01/27 02:40:26;;;;;;;1.73;1.63;;;-1.00;98.50;;;;;;4781275;30;20196;-73
2021/01/27 02:43:02;;;;;;;4.60;2.10;;;-1.00;98.50;;;;;;4781982;30;20294;-73
2021/01/27 02:45:35;;;;;;;2.03;1.80;;;-1.00;98.50;;;;;;4781297;30;20185;-73
2021/01/27 02:48:13;;;;;;;1.77;1.67;;;-1.00;98.50;;;;;;4780589;30;20610;-73
2021/01/27 02:50:52;;;;;;;2.53;1.83;;;-1.00;98.50;;;;;;4780439;30;20254;-73
2021/01/27 02:53:33;;;;;;;1.73;1.60;;;-1.00;98.50;;;;;;4780036;30;20197;-73
2021/01/27 02:56:20;;;;;;;2.83;2.20;;;-1.00;98.50;;;;;;4796514;29;20200;-73
2021/01/27 02:59:03;;;;;;;1.80;1.70;;;-1.00;98.50;;;;;;4781440;29;20868;-73
2021/01/27 03:01:41;;;;;;;3.17;1.67;;;-0.90;98.50;;;;;;4780175;30;20284;-73
2021/01/27 03:04:17;;;;;;;1.57;1.47;;;-1.00;98.50;;;;;;4815917;29;20212;-73
2021/01/27 03:06:45;;;;;;;1.90;1.63;;;-0.90;98.50;;;;;;4880312;29;20231;-73
2021/01/27 03:09:16;;;;;;;1.53;1.43;;;-0.90;98.50;;;;;;4890588;29;20205;-73
2021/01/27 03:11:42;;;;;;;1.60;1.50;;;-0.90;98.50;;;;;;4888992;29;20205;-73
2021/01/27 03:14:09;;;;;;;1.60;1.60;;;-0.90;98.50;;;;;;4913181;28;20587;-73
2021/01/27 03:16:40;;;;;;;2.10;1.90;;;-0.80;98.50;;;;;;4967917;28;20182;-73
2021/01/27 03:19:09;;;;;;;1.27;1.27;;;-0.80;98.50;;;;;;4963479;28;20238;-73
2021/01/27 03:21:45;;;;;;;1.87;1.73;;;-0.80;98.50;;;;;;4961858;28;20253;-73
2021/01/27 03:24:22;;;;;;;2.03;1.90;;;-0.80;98.50;;;;;;4950508;28;20210;-73
2021/01/27 03:26:56;;;;;;;1.50;1.40;;;-0.80;98.50;;;;;;4967972;28;20186;-73
2021/01/27 03:29:27;;;;;;;1.87;1.60;;;-0.80;98.50;;;;;;4968544;28;20224;-73
2021/01/27 03:31:57;;;;;;;2.70;2.00;;;-0.80;98.50;;;;;;4967091;28;20213;-73
2021/01/27 03:34:39;;;;;;;2.00;1.90;;;-0.80;98.50;;;;;;4967923;28;20183;-73
2021/01/27 03:37:20;;;;;;;1.20;1.10;;;-0.80;98.50;;;;;;4948834;28;20183;-73
2021/01/27 03:39:51;;;;;;;1.70;1.60;;;-0.80;98.50;;;;;;4965162;28;20566;-73
2021/01/27 03:42:42;;;;;;;1.63;1.53;;;-0.80;98.50;;;;;;4968328;28;20757;-73
2021/01/27 03:45:10;;;;;;;2.83;1.80;;;-0.70;98.50;;;;;;4967523;28;20754;-73
2021/01/27 03:48:00;;;;;;;1.63;1.53;;;-0.70;98.50;;;;;;4949553;28;20268;-73
2021/01/27 03:50:26;;;;;;;1.93;1.63;;;-0.70;98.50;;;;;;4967497;28;20198;-73
2021/01/27 03:53:02;;;;;;;1.57;1.47;;;-0.70;98.50;;;;;;4968038;28;20314;-73
2021/01/27 03:56:06;;;;;;;1.73;1.63;;;-0.70;98.50;;;;;;4968011;28;20258;-72
2021/01/27 03:58:40;;;;;;;2.53;2.33;;;-0.80;98.50;;;;;;4967411;28;20193;-73
2021/01/27 04:01:08;;;;;;;1.67;1.57;;;-0.80;98.50;;;;;;4968018;28;20273;-73
2021/01/27 04:06:19;;;;;;;1.83;1.73;;;-0.70;98.50;;;;;;4967823;28;20272;-72
2021/01/27 04:08:45;;;;;;;1.80;1.60;;;-0.70;98.50;;;;;;4967464;28;20244;-73
2021/01/27 04:11:11;;;;;;;1.90;1.77;;;-0.70;98.50;;;;;;4967400;28;20202;-73
2021/01/27 04:13:37;;;;;;;1.33;1.30;;;-0.80;98.50;;;;;;4967514;28;20891;-73
2021/01/27 04:16:03;;;;;;;1.37;1.27;;;-0.80;98.50;;;;;;4968136;28;20182;-73
2021/01/27 04:18:29;;;;;;;3.07;1.97;;;-0.80;98.50;;;;;;4966203;28;20214;-73
2021/01/27 04:20:55;;;;;;;1.63;1.53;;;-0.80;98.50;;;;;;4965098;28;20197;-72
2021/01/27 04:23:21;;;;;;;1.30;1.30;;;-0.80;98.50;;;;;;4966944;28;20876;-73
2021/01/27 04:25:47;;;;;;;1.70;1.60;;;-0.80;98.50;;;;;;4967015;28;20277;-73
2021/01/27 04:28:13;;;;;;;4.07;1.50;;;-0.80;98.50;;;;;;4967295;28;20406;-73
2021/01/27 04:30:39;;;;;;;2.03;1.87;;;-0.80;98.50;;;;;;4967716;28;20198;-73
2021/01/27 04:33:08;;;;;;;1.50;1.40;;;-0.90;98.50;;;;;;4966940;28;20182;-73
2021/01/27 04:35:35;;;;;;;1.60;1.53;;;-0.90;98.50;;;;;;4949529;28;20188;-74
2021/01/27 04:40:46;;;;;;;2.27;2.07;;;-0.90;98.50;;;;;;4967484;28;20241;-74
2021/01/27 04:43:21;;;;;;;1.60;1.50;;;-0.90;98.50;;;;;;4950031;28;20647;-73
2021/01/27 04:45:54;;;;;;;1.97;1.87;;;-0.90;98.50;;;;;;4954590;28;20254;-74
2021/01/27 04:48:29;;;;;;;1.80;1.70;;;-0.80;98.50;;;;;;4946236;28;20897;-73
2021/01/27 04:51:03;;;;;;;3.33;2.73;;;-0.90;98.50;;;;;;4965866;28;20206;-73
2021/01/27 04:53:53;;;;;;;1.73;1.63;;;-0.90;98.50;;;;;;4966770;28;20206;-73
2021/01/27 04:56:40;;;;;;;2.07;1.97;;;-0.90;98.50;;;;;;4967105;28;20246;-73
2021/01/27 04:59:18;;;;;;;2.53;2.20;;;-1.00;98.50;;;;;;4961263;28;20554;-73
2021/01/27 05:02:09;;;;;;;2.00;1.90;;;-1.10;98.50;;;;;;4966673;28;20185;-73
2021/01/27 05:04:49;;;;;;;1.57;1.47;;;-1.00;98.50;;;;;;4967147;28;20181;-73
2021/01/27 05:07:20;;;;;;;1.80;1.70;;;-1.00;98.50;;;;;;4966731;28;20869;-73
2021/01/27 05:09:55;;;;;;;2.00;1.90;;;-1.00;98.50;;;;;;4965195;28;20182;-73
2021/01/27 05:12:23;;;;;;;1.93;1.83;;;-1.00;98.50;;;;;;4947334;28;20684;-73
2021/01/27 05:14:49;;;;;;;1.97;1.87;;;-1.00;98.50;;;;;;4966220;28;20246;-73
2021/01/27 05:17:19;;;;;;;1.53;1.47;;;-1.10;98.50;;;;;;4966046;28;20189;-73
2021/01/27 05:19:46;;;;;;;1.73;1.63;;;-1.10;98.50;;;;;;4964764;28;20178;-73
2021/01/27 05:22:13;;;;;;;3.03;1.90;;;-1.20;98.50;;;;;;4966281;28;20194;-73
2021/01/27 05:24:41;;;;;;;2.57;1.80;;;-1.20;98.50;;;;;;4966327;28;20190;-73
2021/01/27 05:27:27;;;;;;;2.30;2.03;;;-1.20;98.50;;;;;;4966714;28;20190;-74
2021/01/27 05:30:06;;;;;;;3.93;1.40;;;-1.20;98.50;;;;;;4965185;28;20202;-74
2021/01/27 05:32:55;;;;;;;2.10;1.73;;;-1.20;98.50;;;;;;4949207;28;20633;-74
2021/01/27 05:35:34;;;;;;;1.83;1.73;;;-1.20;98.50;;;;;;4968071;28;20158;-73
2021/01/27 05:38:17;;;;;;;3.80;2.00;;;-1.20;98.30;;;;;;4968962;28;20174;-73
2021/01/27 05:40:43;;;;;;;2.00;1.90;;;-1.20;98.20;;;;;;4949750;29;20175;-73
2021/01/27 05:43:18;;;;;;;1.87;1.77;;;-1.30;97.60;;;;;;4951076;29;20237;-74
2021/01/27 05:45:47;;;;;;;3.80;2.20;;;-1.30;97.30;;;;;;4968259;28;20902;-74
2021/01/27 05:48:34;;;;;;;1.77;1.67;;;-1.30;97.00;;;;;;4968585;28;20187;-73
2021/01/27 05:51:02;;;;;;;2.73;1.73;;;-1.40;96.70;;;;;;4969814;28;20270;-72
2021/01/27 05:53:31;;;;;;;2.73;2.00;;;-1.30;96.70;;;;;;4970125;28;20197;-72
2021/01/27 05:56:01;;;;;;;2.23;1.93;;;-1.30;96.30;;;;;;4969483;28;20189;-72
2021/01/27 05:58:30;;;;;;;4.40;2.30;;;-1.30;96.10;;;;;;4970295;28;20204;-74
2021/01/27 06:01:19;;;;;;;2.50;2.30;;;-1.30;96.00;;;;;;4969367;28;20698;-73
2021/01/27 06:03:57;;;;;;;6.80;2.70;;;-1.30;96.00;;;;;;4969147;28;20178;-74
2021/01/27 06:06:25;;;;;;;4.10;2.10;;;-1.30;96.00;;;;;;4962398;28;20179;-74
2021/01/27 06:08:54;;;;;;;4.40;2.73;;;-1.30;95.30;;;;;;4964767;28;20668;-73
2021/01/27 06:11:21;;;;;;;3.70;1.90;;;-1.30;95.20;;;;;;4967552;28;20213;-73
2021/01/27 06:13:48;;;;;;;2.33;2.17;;;-1.30;95.00;;;;;;4968321;28;20179;-73
2021/01/27 06:16:32;;;;;;;3.07;1.83;;;-1.40;94.60;;;;;;4951975;28;20178;-73
2021/01/27 06:19:30;;;;;;;3.30;2.10;;;-1.40;94.70;;;;;;4968744;28;20174;-73
2021/01/27 06:22:16;;;;;;;1.73;1.63;;;-1.40;94.70;;;;;;4908570;29;20204;-73
2021/01/27 06:24:53;;;;;;;3.10;2.33;;;-1.40;94.40;;;;;;4902381;29;20773;-74
2021/01/27 06:28:03;;;;;;;4.17;1.97;;;-1.50;94.50;;;;;;4907377;29;20195;-73
2021/01/27 06:30:34;;;;;;;3.13;2.53;;;-1.50;94.10;;;;;;4852767;29;20900;-73
2021/01/27 06:33:47;;;;;;;2.93;2.33;;;-1.50;94.20;;;;;;4866750;29;20210;-73
2021/01/27 06:36:19;;;;;;;3.07;2.67;;;-1.50;94.10;;;;;;4860829;29;20189;-72
2021/01/27 06:38:53;;;;;;;3.43;2.60;;;-1.50;94.00;;;;;;4845759;29;20688;-74
2021/01/27 06:41:19;;;;;;;2.47;1.63;;;-1.60;93.80;;;;;;4856632;29;20218;-73
2021/01/27 06:43:56;;;;;;;2.63;2.43;;;-1.60;93.90;;;;;;4858984;29;20727;-72
2021/01/27 06:46:29;;;;;;;3.60;2.47;;;-1.50;94.10;;;;;;4852841;29;20380;-73
2021/01/27 06:49:23;;;;;;;6.17;3.13;;;-1.50;94.00;;;;;;4854591;29;20212;-73
2021/01/27 06:52:17;;;;;;;4.70;2.50;;;-1.60;93.90;;;;;;4852764;29;20257;-74
2021/01/27 06:54:57;;;;;;;3.07;2.43;;;-1.50;94.00;;;;;;4852470;29;20195;-74
2021/01/27 06:57:44;;;;;;;3.17;2.83;;;-1.50;94.10;;;;;;4862372;29;20738;-74
2021/01/27 07:00:33;;;;;;;2.40;2.30;;;-1.40;94.20;;;;;;4881194;29;20196;-74
2021/01/27 07:03:23;;;;;;;2.97;2.77;;;-1.40;93.70;;;;;;4893793;29;20187;-81
2021/01/27 07:06:01;;;;;;;7.27;3.30;;;-1.50;93.50;;;;;;4910189;29;20223;-73
2021/01/27 07:08:36;;;;;;;4.10;2.40;;;-1.40;93.60;;;;;;4934282;28;20593;-73
2021/01/27 07:11:06;;;;;;;3.77;2.97;;;-1.50;93.00;;;;;;4968290;28;20197;-73
2021/01/27 07:13:59;;;;;;;3.60;3.20;;;-1.50;92.90;;;;;;4969007;28;20229;-73
2021/01/27 07:16:45;;;;;;;3.30;2.93;;;-1.50;92.40;;;;;;4967843;28;20232;-78
2021/01/27 07:20:15;;;;;;;4.33;2.80;;;-1.50;92.50;;;;;;4969256;28;20171;-75
2021/01/27 07:23:05;;;;;;;2.60;2.40;;;-1.60;92.30;;;;;;4854574;29;20203;-73
2021/01/27 07:25:58;;;;;;;3.67;2.77;;;-1.60;92.20;;;;;;4870589;29;20265;-74
2021/01/27 07:28:48;;;;;;;1.70;1.60;;;-1.50;92.40;;;;;;4870042;29;20337;-72
2021/01/27 07:31:27;;;;;;;1.67;1.63;;;-1.50;91.90;;;;;;4870164;29;20229;-74
2021/01/27 07:34:11;;;;;;;3.37;2.30;;;-1.50;92.30;;;;;;4870523;29;20197;-73
2021/01/27 07:37:13;;;;;;;4.40;2.43;;;-1.40;92.70;;;;;;4870206;29;20207;-72
2021/01/27 07:39:57;;;;;;;2.27;1.87;;;-1.40;91.50;;;;;;4852344;29;20209;-74
2021/01/27 07:42:25;;;;;;;4.07;2.73;;;-1.40;91.40;;;;;;4861483;29;21091;-74
2021/01/27 07:45:00;;;;;;;2.23;1.80;;;-1.40;91.60;;;;;;4867060;29;20277;-75
2021/01/27 07:47:46;;;;;;;2.13;1.87;;;-1.40;92.10;;;;;;4869860;29;20199;-75
2021/01/27 07:50:13;;;;;;;3.43;3.00;;;-1.30;91.90;;;;;;4869027;29;20674;-75
2021/01/27 07:52:51;;;;;;;3.97;2.33;;;-1.30;92.10;;;;;;4882608;29;20231;-75
2021/01/27 07:55:28;;;;;;;3.20;1.87;;;-1.20;91.90;;;;;;4882026;29;20231;-75
2021/01/27 07:58:08;;;;;;;2.43;2.23;;;-1.20;91.30;;;;;;4907354;29;20188;-75
2021/01/27 08:00:41;;;;;;;6.80;2.77;;;-1.20;91.50;;;;;;4956257;28;20190;-75
2021/01/27 08:03:37;;;;;;;3.83;1.73;;;-1.10;90.80;;;;;;4965958;28;20186;-75
2021/01/27 08:06:10;;;;;;;2.30;2.20;;;-1.20;90.10;;;;;;4962832;28;20191;-75
2021/01/27 08:08:52;;;;;;;2.70;2.50;;;-1.20;90.10;;;;;;4953007;28;20182;-75
2021/01/27 08:11:27;;;;;;;2.67;2.40;;;-1.30;89.90;;;;;;4950992;28;20203;-75
2021/01/27 08:13:53;;;;;;;3.57;2.70;;;-1.20;90.50;;;;;;4967586;28;20971;-75
2021/01/27 08:16:31;;;;;;;3.67;3.00;;;-1.10;90.70;;;;;;4959751;28;20182;-75
2021/01/27 08:19:11;;;;;;;3.57;2.93;;;-1.20;89.70;;;;;;4962181;28;20182;-75
2021/01/27 08:21:46;;;;;;;5.60;2.67;;;-1.10;90.30;;;;;;4966407;28;20563;-73
2021/01/27 08:24:33;;;;;;;2.47;2.23;;;-1.10;89.80;;;;;;4961127;28;20230;-74
2021/01/27 08:27:24;;;;;;;5.77;2.83;;;-1.10;89.70;;;;;;4960318;28;20206;-74
2021/01/27 08:29:55;;;;;;;7.60;3.40;;;-1.10;89.50;;;;;;4962447;28;20280;-74
2021/01/27 08:32:26;;;;;;;2.73;2.53;;;-1.10;89.70;;;;;;4966909;28;20234;-74
2021/01/27 08:34:54;;;;;;;3.30;2.77;;;-1.00;89.50;;;;;;4965033;28;20214;-74
2021/01/27 08:37:26;;;;;;;4.33;2.27;;;-1.00;89.60;;;;;;4955837;28;21001;-74
2021/01/27 08:40:12;;;;;;;4.93;2.43;;;-1.00;89.70;;;;;;4965067;28;20174;-74
2021/01/27 08:42:44;;;;;;;2.77;2.53;;;-1.00;89.30;;;;;;4879514;29;20701;-74
2021/01/27 08:45:32;;;;;;;2.40;2.20;;;-0.90;89.50;;;;;;4902267;29;20340;-74
2021/01/27 08:48:02;;;;;;;2.83;2.50;;;-0.80;89.60;;;;;;4904486;29;20703;-74
2021/01/27 08:50:59;;;;;;;5.00;3.10;;;-0.80;89.00;;;;;;4907425;29;20583;-74
2021/01/27 08:53:48;;;;;;;2.90;2.70;;;-0.70;89.00;;;;;;4851244;29;20191;-74
2021/01/27 08:56:14;;;;;;;2.13;2.03;;;-0.60;89.10;;;;;;4849813;29;20186;-74
2021/01/27 08:58:45;;;;;;;4.20;2.60;;;-0.50;88.30;;;;;;4850296;29;20268;-74
2021/01/27 09:01:23;;;;;;;2.43;2.23;;;-0.40;88.70;;;;;;4850797;29;20209;-72
2021/01/27 09:03:51;;;;;;;2.50;2.27;;;-0.20;88.60;;;;;;4850950;29;20209;-73
2021/01/27 09:06:34;;;;;;;2.17;1.97;;;-0.10;87.70;;;;;;4834985;29;20982;-74
2021/01/27 09:09:14;;;;;;;3.17;1.40;;;0.00;87.10;;;;;;4837661;29;20597;-73
2021/01/27 09:11:40;;;;;;;5.53;2.10;;;0.00;86.80;;;;;;4850645;29;20197;-73
2021/01/27 09:14:16;;;;;;;3.20;1.90;;;0.00;87.20;;;;;;4851187;29;20243;-73
2021/01/27 09:16:45;;;;;;;3.47;3.17;;;0.10;86.80;;;;;;4850040;29;20277;-75
2021/01/27 09:19:15;;;;;;;2.67;2.47;;;0.00;86.30;;;;;;4848810;29;20220;-74
2021/01/27 09:21:42;;;;;;;2.10;2.00;;;0.00;86.60;;;;;;4887255;29;20241;-74
2021/01/27 09:24:31;;;;;;;1.90;1.80;;;0.10;87.00;;;;;;4879540;29;20197;-74
2021/01/27 09:26:57;;;;;;;3.90;2.60;;;0.20;86.80;;;;;;4876290;29;20189;-75
2021/01/27 09:29:32;;;;;;;3.13;2.30;;;0.10;86.80;;;;;;4901708;28;20214;-74
2021/01/27 09:32:15;;;;;;;2.60;2.27;;;0.20;87.10;;;;;;4960679;28;20197;-73
2021/01/27 09:34:41;;;;;;;1.90;1.60;;;0.10;87.00;;;;;;4962381;28;20166;-75
2021/01/27 09:37:11;;;;;;;6.63;1.87;;;0.00;86.50;;;;;;4955363;28;20198;-74
2021/01/27 09:39:46;;;;;;;1.93;1.83;;;0.00;86.70;;;;;;4950175;28;20882;-75
2021/01/27 09:42:27;;;;;;;2.80;2.70;;;-0.20;86.40;;;;;;4962838;28;20173;-74
2021/01/27 09:45:11;;;;;;;1.80;1.73;;;-0.20;86.90;;;;;;4955110;28;20678;-75
2021/01/27 09:47:42;;;;;;;1.63;1.53;;;-0.20;87.50;;;;;;4957622;28;20170;-75
2021/01/27 09:50:10;;;;;;;3.03;2.23;;;-0.20;87.80;;;;;;4954361;28;20241;-75
2021/01/27 09:52:36;;;;;;;2.43;2.00;;;-0.20;88.00;;;;;;4955023;28;20233;-75
2021/01/27 09:55:09;;;;;;;6.17;2.80;;;-0.20;87.90;;;;;;4936453;28;20171;-73
2021/01/27 09:57:38;;;;;;;2.80;2.00;;;-0.30;88.10;;;;;;4950407;28;20342;-74
2021/01/27 10:00:10;;;;;;;1.90;1.77;;;-0.30;88.40;;;;;;4950211;28;20205;-74
2021/01/27 10:02:36;;;;;;;4.23;2.07;;;-0.30;88.60;;;;;;4943687;28;20351;-73
2021/01/27 10:08:28;;;;;;;2.33;1.70;;;-0.30;89.10;;;;;;4946593;28;20183;-73
2021/01/27 10:11:09;;;;;;;2.17;1.23;;;-0.30;88.80;;;;;;4964206;28;20197;-73
2021/01/27 10:13:36;;;;;;;1.73;1.63;;;-0.40;88.20;;;;;;4934375;29;20897;-74
2021/01/27 10:16:20;;;;;;;1.80;1.70;;;-0.40;88.60;;;;;;4963133;28;20532;-73
2021/01/27 10:18:46;;;;;;;3.40;1.90;;;-0.30;88.80;;;;;;4960252;28;20282;-74
2021/01/27 10:21:16;;;;;;;2.13;2.03;;;-0.20;89.20;;;;;;4951083;28;20266;-72
2021/01/27 10:23:48;;;;;;;1.80;1.70;;;-0.20;89.00;;;;;;4963729;28;20277;-74
2021/01/27 10:26:29;;;;;;;2.57;2.37;;;-0.20;88.50;;;;;;4963845;28;20210;-75
2021/01/27 10:29:16;;;;;;;3.23;2.07;;;-0.20;88.30;;;;;;4960945;28;20289;-75
2021/01/27 10:31:45;;;;;;;2.67;2.00;;;-0.20;88.80;;;;;;4967366;28;20205;-75
2021/01/27 10:34:38;;;;;;;2.53;2.33;;;-0.20;88.80;;;;;;4964514;28;20178;-75
2021/01/27 10:37:05;;;;;;;2.40;2.30;;;-0.10;88.70;;;;;;4950272;28;20182;-75
2021/01/27 10:39:32;;;;;;;3.07;2.20;;;-0.10;88.40;;;;;;4965098;28;20182;-74
2021/01/27 10:42:06;;;;;;;5.53;2.50;;;-0.10;88.50;;;;;;4964012;28;20205;-74
2021/01/27 10:44:38;;;;;;;5.53;2.47;;;-0.10;88.30;;;;;;4952836;28;20198;-74
2021/01/27 10:47:10;;;;;;;3.53;2.17;;;-0.10;88.00;;;;;;4939090;28;20270;-74
2021/01/27 10:49:45;;;;;;;2.40;2.03;;;-0.20;87.60;;;;;;4961510;28;20623;-74
2021/01/27 10:52:24;;;;;;;2.27;2.17;;;-0.10;88.30;;;;;;4956722;28;20202;-74
2021/01/27 10:54:59;;;;;;;1.87;1.60;;;-0.10;88.40;;;;;;4953151;28;20187;-73
2021/01/27 10:57:25;;;;;;;2.30;2.20;;;0.00;88.50;;;;;;4948396;29;20698;-75
2021/01/27 10:59:52;;;;;;;2.63;2.43;;;0.10;88.40;;;;;;4964488;28;20186;-74
2021/01/27 11:02:19;;;;;;;5.47;2.83;;;0.20;88.70;;;;;;4961777;28;20598;-74
2021/01/27 11:04:45;;;;;;;2.57;2.47;;;0.30;87.90;;;;;;4960340;28;20322;-74
2021/01/27 11:07:14;;;;;;;3.07;2.60;;;0.30;87.80;;;;;;4958581;28;20217;-74
2021/01/27 11:09:39;;;;;;;3.77;2.53;;;0.40;88.20;;;;;;4965786;28;20178;-74
2021/01/27 11:12:05;;;;;;;2.37;2.20;;;0.30;87.60;;;;;;4952659;28;20261;-71
2021/01/27 11:14:31;;;;;;;6.97;3.13;;;0.40;87.60;;;;;;4963532;28;20649;-72
2021/01/27 11:16:57;;;;;;;6.40;3.43;;;0.40;86.90;;;;;;4954484;28;20175;-71
2021/01/27 11:19:23;;;;;;;3.17;2.97;;;0.40;87.60;;;;;;4956616;28;20938;-72
2021/01/27 11:21:48;;;;;;;4.33;3.47;;;0.40;87.40;;;;;;4947033;28;20190;-72
2021/01/27 11:24:15;;;;;;;4.23;3.17;;;0.40;87.40;;;;;;4952402;28;20186;-71
2021/01/27 11:26:41;;;;;;;3.33;2.73;;;0.30;86.60;;;;;;4961832;28;20181;-71
2021/01/27 11:29:07;;;;;;;2.57;2.47;;;0.30;86.90;;;;;;4956850;28;20689;-69
2021/01/27 11:31:34;;;;;;;4.07;2.83;;;0.20;87.10;;;;;;4962296;28;20615;-71
2021/01/27 11:34:00;;;;;;;2.20;2.00;;;0.20;87.30;;;;;;4962726;28;20198;-71
2021/01/27 11:36:25;;;;;;;3.73;2.63;;;0.20;87.40;;;;;;4948212;28;21062;-72
2021/01/27 11:38:52;;;;;;;2.53;2.40;;;0.10;87.30;;;;;;4956114;28;20738;-71
2021/01/27 11:41:20;;;;;;;4.87;3.57;;;0.10;87.60;;;;;;4956710;28;20197;-71
2021/01/27 11:43:46;;;;;;;4.27;2.83;;;0.20;88.10;;;;;;4934169;28;20187;-73
2021/01/27 11:46:13;;;;;;;5.43;2.77;;;0.30;88.20;;;;;;4951738;28;20274;-71
2021/01/27 11:48:40;;;;;;;5.60;3.67;;;0.20;88.00;;;;;;4960874;28;20555;-72
2021/01/27 11:51:07;;;;;;;5.90;3.83;;;0.40;88.60;;;;;;4958102;28;20269;-71
2021/01/27 11:53:32;;;;;;;4.27;2.63;;;0.40;88.50;;;;;;4957742;28;20166;-72
2021/01/27 11:55:58;;;;;;;4.27;3.33;;;0.50;88.20;;;;;;4964876;28;20182;-72
2021/01/27 11:58:25;;;;;;;4.53;3.10;;;0.50;87.50;;;;;;4962960;28;20214;-72
2021/01/27 12:00:52;;;;;;;6.60;4.00;;;0.50;87.50;;;;;;4955209;28;20189;-72
2021/01/27 12:03:17;;;;;;;4.73;3.03;;;0.60;87.90;;;;;;4966249;28;20193;-72
2021/01/27 12:05:44;;;;;;;2.87;2.37;;;0.60;88.00;;;;;;4952872;28;20660;-72
2021/01/27 12:08:10;;;;;;;5.57;3.70;;;0.70;87.80;;;;;;4961847;28;20185;-72
2021/01/27 12:10:37;;;;;;;4.03;3.70;;;0.70;87.40;;;;;;4967012;28;20221;-72
2021/01/27 12:13:03;;;;;;;7.60;4.80;;;0.70;87.70;;;;;;4961912;28;20199;-72
2021/01/27 12:15:29;;;;;;;5.47;3.37;;;0.80;88.20;;;;;;4943191;28;20749;-72
2021/01/27 12:17:55;;;;;;;6.47;3.87;;;0.70;87.30;;;;;;4933642;28;20206;-72
2021/01/27 12:20:21;;;;;;;5.90;3.70;;;0.70;87.30;;;;;;4963621;28;20175;-72
2021/01/27 12:22:47;;;;;;;4.60;3.47;;;0.60;87.20;;;;;;4956590;28;20183;-72
2021/01/27 12:25:14;;;;;;;6.27;4.47;;;0.60;87.30;;;;;;4937518;29;20222;-72
2021/01/27 12:27:40;;;;;;;5.33;3.97;;;0.60;87.70;;;;;;4946358;28;20182;-72
2021/01/27 12:30:08;;;;;;;4.17;3.87;;;0.60;88.10;;;;;;4965035;28;20193;-72
2021/01/27 12:32:34;;;;;;;4.27;3.77;;;0.60;88.00;;;;;;4957125;28;20207;-72
2021/01/27 12:35:00;;;;;;;3.23;2.93;;;0.60;87.70;;;;;;4965543;28;20182;-72
2021/01/27 12:37:25;;;;;;;6.83;3.90;;;0.70;88.00;;;;;;4936605;29;20212;-72
2021/01/27 12:39:51;;;;;;;4.43;3.37;;;0.50;87.50;;;;;;4963330;28;20290;-72
2021/01/27 12:42:17;;;;;;;5.33;3.50;;;0.40;87.40;;;;;;4949221;28;20261;-73
2021/01/27 12:44:46;;;;;;;4.00;3.43;;;0.40;87.90;;;;;;4953035;28;20629;-72
2021/01/27 12:47:12;;;;;;;4.13;3.73;;;0.40;88.20;;;;;;4966050;28;20182;-73
2021/01/27 12:49:38;;;;;;;2.97;2.73;;;0.30;87.70;;;;;;4952550;28;20307;-73
2021/01/27 12:52:04;;;;;;;3.03;2.67;;;0.30;88.00;;;;;;4955841;28;20903;-72
2021/01/27 12:54:30;;;;;;;8.53;3.30;;;0.20;88.10;;;;;;4965508;28;20186;-73
2021/01/27 12:56:56;;;;;;;4.57;3.13;;;0.20;88.50;;;;;;4958138;28;20667;-73
2021/01/27 12:59:22;;;;;;;4.60;3.10;;;0.30;89.00;;;;;;4959136;28;20174;-73
2021/01/27 13:01:48;;;;;;;3.47;3.17;;;0.30;89.10;;;;;;4956880;28;20187;-73
2021/01/27 13:04:14;;;;;;;3.43;3.17;;;0.30;88.30;;;;;;4959937;28;20284;-73
2021/01/27 13:06:40;;;;;;;2.73;2.53;;;0.20;88.50;;;;;;4950498;28;20599;-74
2021/01/27 13:09:06;;;;;;;2.90;2.67;;;0.20;89.30;;;;;;4963149;28;20185;-74
2021/01/27 13:11:31;;;;;;;3.07;2.87;;;0.20;89.00;;;;;;4959298;28;20235;-73
2021/01/27 13:13:57;;;;;;;3.70;2.60;;;0.10;89.00;;;;;;4938882;29;20179;-73
2021/01/27 13:16:23;;;;;;;2.60;2.43;;;0.10;88.50;;;;;;4957317;28;20178;-72
2021/01/27 13:18:48;;;;;;;3.53;3.07;;;0.10;88.70;;;;;;4948975;28;20183;-72
2021/01/27 13:21:15;;;;;;;3.53;3.07;;;0.10;88.70;;;;;;4961492;28;20179;-74
2021/01/27 13:23:47;;;;;;;3.87;3.13;;;0.20;88.70;;;;;;4955333;28;20277;-74
2021/01/27 13:26:16;;;;;;;4.63;2.93;;;0.20;88.20;;;;;;4959645;28;20166;-74
2021/01/27 13:28:42;;;;;;;5.03;3.77;;;0.30;87.90;;;;;;4932878;28;20191;-74
2021/01/27 13:31:09;;;;;;;2.97;2.77;;;0.40;88.10;;;;;;4962254;28;20598;-74